Hlavní strana
METAR-TAF:

METAR-TAF

Letiště :

Robinsova letecká základna

Warner Robins, Georgie, Spojené státy americké

zeměpisná šířka: 32-38N, zeměpisná délka: 083-36W, výška: 90 m

Aktuální stav počasí

Zpráva byla vytvořena před 1 hodinou a 15 minutami, v 10:56 UTC
Bezvětří
Teplota 20°C
Vlhkost vzduchu 94%
Tlak 1022 hPa
Viditelnost: 16.1 km
Jasno

METAR: KWRB 241056Z 00000KT 10SM CLR 20/19 A3018 RMK AO2A SLP220 T01970189

Čas: 08:11 (12:11 UTC)

Předpověď počasí

Zpráva byla vytvořena před 7 hodinami a 11 minutami, v 05:00 UTC
Předpověď platná od 24 v 05 UTC do 25 v 11 UTC
Západojihozápadní vítr 6 kt
Viditelnost 10 km a více
Skoro jasno ve výšce 4000 ft

TAF: KWRB 240500Z 2405/2511 24006KT 9999 FEW040 QNH3004INS TX37/2420Z TN20/2410Z

Stav a předpovědi počasí z více než 4 000 letišť (zprávy METAR a TAF).

Červené a žluté tečky na mapě představují dostupné meteorologické stanice.

Když kurzor umístíte na tečku, zobrazí se název stanice.

Pak kliknutím zobrazíte stav a předpověď počasí.

Chcete-li změnit mapu, kliknutím na zelené tlačítko se znaménkem +mapu přiblížíte, kliknutím na zelené tlačítko se znaménkem – mapu oddálíte a kliknutím na zelené šipky přejdete na sousední mapy.


METAR-TAF: